sensor_id;sensor_type;location;lat;lon;timestamp;pressure;altitude;pressure_sealevel;temperature;humidity
67740;BME280;54536;50.090;14.420;2024-03-02T00:00:38;98457.47;;;12.09;73.79
67740;BME280;54536;50.090;14.420;2024-03-02T00:03:25;98448.66;;;11.94;74.76
67740;BME280;54536;50.090;14.420;2024-03-02T00:05:51;98463.25;;;11.97;74.09
67740;BME280;54536;50.090;14.420;2024-03-02T00:08:23;98461.16;;;12.00;74.43
67740;BME280;54536;50.090;14.420;2024-03-02T00:10:51;98463.44;;;11.95;73.98
67740;BME280;54536;50.090;14.420;2024-03-02T00:13:20;98461.47;;;11.97;73.82
67740;BME280;54536;50.090;14.420;2024-03-02T00:15:53;98459.97;;;12.03;73.91
67740;BME280;54536;50.090;14.420;2024-03-02T00:18:25;98459.47;;;11.99;73.53
67740;BME280;54536;50.090;14.420;2024-03-02T00:20:55;98450.59;;;12.00;73.64
67740;BME280;54536;50.090;14.420;2024-03-02T00:23:23;98457.81;;;12.14;73.34
67740;BME280;54536;50.090;14.420;2024-03-02T00:25:56;98447.13;;;12.00;73.41
67740;BME280;54536;50.090;14.420;2024-03-02T00:28:33;98449.75;;;12.00;73.72
67740;BME280;54536;50.090;14.420;2024-03-02T00:31:03;98454.22;;;12.07;73.26
67740;BME280;54536;50.090;14.420;2024-03-02T00:33:52;98458.28;;;12.18;73.21
67740;BME280;54536;50.090;14.420;2024-03-02T00:36:26;98447.06;;;12.24;72.61
67740;BME280;54536;50.090;14.420;2024-03-02T00:38:55;98458.44;;;12.25;72.53
67740;BME280;54536;50.090;14.420;2024-03-02T00:41:27;98454.16;;;12.15;72.82
67740;BME280;54536;50.090;14.420;2024-03-02T00:46:29;98454.00;;;12.17;72.89
67740;BME280;54536;50.090;14.420;2024-03-02T00:48:59;98458.28;;;12.18;73.10
67740;BME280;54536;50.090;14.420;2024-03-02T00:51:33;98451.56;;;12.07;73.42
67740;BME280;54536;50.090;14.420;2024-03-02T00:54:03;98453.06;;;12.10;73.69
67740;BME280;54536;50.090;14.420;2024-03-02T00:56:30;98455.50;;;12.03;73.74
67740;BME280;54536;50.090;14.420;2024-03-02T00:58:57;98459.63;;;12.06;74.50
67740;BME280;54536;50.090;14.420;2024-03-02T01:01:23;98462.78;;;12.01;74.50
67740;BME280;54536;50.090;14.420;2024-03-02T01:03:50;98468.88;;;12.10;74.19
67740;BME280;54536;50.090;14.420;2024-03-02T01:06:16;98462.22;;;12.22;73.97
67740;BME280;54536;50.090;14.420;2024-03-02T01:08:43;98462.88;;;12.24;73.77
67740;BME280;54536;50.090;14.420;2024-03-02T01:11:09;98468.16;;;12.24;73.70
67740;BME280;54536;50.090;14.420;2024-03-02T01:13:35;98470.78;;;12.16;74.25
67740;BME280;54536;50.090;14.420;2024-03-02T01:16:02;98469.66;;;12.18;73.95
67740;BME280;54536;50.090;14.420;2024-03-02T01:18:28;98465.38;;;12.17;73.96
67740;BME280;54536;50.090;14.420;2024-03-02T01:20:54;98461.88;;;12.25;73.31
67740;BME280;54536;50.090;14.420;2024-03-02T01:23:24;98464.56;;;12.17;73.62
67740;BME280;54536;50.090;14.420;2024-03-02T01:25:51;98459.78;;;12.12;73.58
67740;BME280;54536;50.090;14.420;2024-03-02T01:28:18;98460.72;;;12.19;73.17
67740;BME280;54536;50.090;14.420;2024-03-02T01:30:45;98456.66;;;12.17;73.31
67740;BME280;54536;50.090;14.420;2024-03-02T01:33:11;98456.44;;;12.27;72.39
67740;BME280;54536;50.090;14.420;2024-03-02T01:35:37;98453.16;;;12.25;72.40
67740;BME280;54536;50.090;14.420;2024-03-02T01:38:04;98461.06;;;12.33;72.71
67740;BME280;54536;50.090;14.420;2024-03-02T01:40:37;98462.56;;;12.19;73.16
67740;BME280;54536;50.090;14.420;2024-03-02T01:43:05;98464.22;;;12.12;73.34
67740;BME280;54536;50.090;14.420;2024-03-02T01:45:32;98460.63;;;12.05;73.74
67740;BME280;54536;50.090;14.420;2024-03-02T01:47:58;98460.63;;;12.05;73.42
67740;BME280;54536;50.090;14.420;2024-03-02T01:50:26;98461.16;;;12.00;73.96
67740;BME280;54536;50.090;14.420;2024-03-02T01:52:53;98459.97;;;12.11;73.81
67740;BME280;54536;50.090;14.420;2024-03-02T01:55:19;98452.25;;;12.01;73.94
67740;BME280;54536;50.090;14.420;2024-03-02T01:57:45;98449.41;;;12.11;73.52
67740;BME280;54536;50.090;14.420;2024-03-02T02:00:14;98446.47;;;12.06;73.41
67740;BME280;54536;50.090;14.420;2024-03-02T02:02:41;98444.78;;;12.13;73.29
67740;BME280;54536;50.090;14.420;2024-03-02T02:05:07;98451.72;;;12.14;73.30
67740;BME280;54536;50.090;14.420;2024-03-02T02:07:33;98448.28;;;12.05;73.53
67740;BME280;54536;50.090;14.420;2024-03-02T02:10:00;98446.59;;;12.12;73.03
67740;BME280;54536;50.090;14.420;2024-03-02T02:12:27;98452.19;;;12.17;72.77
67740;BME280;54536;50.090;14.420;2024-03-02T02:14:52;98444.25;;;12.26;72.47
67740;BME280;54536;50.090;14.420;2024-03-02T02:17:19;98448.22;;;12.22;72.49
67740;BME280;54536;50.090;14.420;2024-03-02T02:19:45;98446.94;;;12.17;72.70
67740;BME280;54536;50.090;14.420;2024-03-02T02:22:12;98443.47;;;12.17;72.66
67740;BME280;54536;50.090;14.420;2024-03-02T02:24:41;98446.09;;;12.17;72.62
67740;BME280;54536;50.090;14.420;2024-03-02T02:27:08;98440.31;;;12.22;72.52
67740;BME280;54536;50.090;14.420;2024-03-02T02:29:35;98437.66;;;12.30;72.18
67740;BME280;54536;50.090;14.420;2024-03-02T02:32:02;98434.03;;;12.31;72.04
67740;BME280;54536;50.090;14.420;2024-03-02T02:34:29;98438.63;;;12.37;71.70
67740;BME280;54536;50.090;14.420;2024-03-02T02:36:55;98433.91;;;12.16;72.78
67740;BME280;54536;50.090;14.420;2024-03-02T02:39:22;98434.44;;;12.11;72.91
67740;BME280;54536;50.090;14.420;2024-03-02T02:41:48;98439.03;;;12.17;72.56
67740;BME280;54536;50.090;14.420;2024-03-02T02:44:14;98438.00;;;12.18;72.51
67740;BME280;54536;50.090;14.420;2024-03-02T02:46:41;98435.72;;;12.15;72.62
67740;BME280;54536;50.090;14.420;2024-03-02T02:49:07;98436.19;;;12.27;72.25
67740;BME280;54536;50.090;14.420;2024-03-02T02:51:33;98428.16;;;12.12;72.76
67740;BME280;54536;50.090;14.420;2024-03-02T02:53:59;98440.47;;;12.28;72.37
67740;BME280;54536;50.090;14.420;2024-03-02T02:56:26;98442.63;;;12.25;72.42
67740;BME280;54536;50.090;14.420;2024-03-02T02:58:52;98434.22;;;12.21;72.72
67740;BME280;54536;50.090;14.420;2024-03-02T03:01:18;98438.16;;;12.25;72.51
67740;BME280;54536;50.090;14.420;2024-03-02T03:03:44;98439.50;;;12.21;72.48
67740;BME280;54536;50.090;14.420;2024-03-02T03:06:12;98442.66;;;12.16;72.70
67740;BME280;54536;50.090;14.420;2024-03-02T03:08:38;98445.25;;;12.25;72.59
67740;BME280;54536;50.090;14.420;2024-03-02T03:11:04;98443.63;;;12.24;72.54
67740;BME280;54536;50.090;14.420;2024-03-02T03:13:31;98440.78;;;12.25;72.15
67740;BME280;54536;50.090;14.420;2024-03-02T03:15:58;98442.28;;;12.19;72.31
67740;BME280;54536;50.090;14.420;2024-03-02T03:18:23;98438.50;;;12.22;72.23
67740;BME280;54536;50.090;14.420;2024-03-02T03:20:50;98444.28;;;12.17;72.54
67740;BME280;54536;50.090;14.420;2024-03-02T03:23:15;98455.31;;;12.21;72.56
67740;BME280;54536;50.090;14.420;2024-03-02T03:25:43;98451.72;;;12.14;72.94
67740;BME280;54536;50.090;14.420;2024-03-02T03:28:10;98454.16;;;12.24;72.14
67740;BME280;54536;50.090;14.420;2024-03-02T03:30:37;98454.34;;;12.14;72.51
67740;BME280;54536;50.090;14.420;2024-03-02T03:33:04;98450.75;;;12.07;72.06
67740;BME280;54536;50.090;14.420;2024-03-02T03:35:35;98453.06;;;12.02;71.67
67740;BME280;54536;50.090;14.420;2024-03-02T03:38:02;98464.25;;;12.04;70.93
67740;BME280;54536;50.090;14.420;2024-03-02T03:40:28;98457.19;;;12.04;69.91
67740;BME280;54536;50.090;14.420;2024-03-02T03:42:53;98459.78;;;12.12;69.78
67740;BME280;54536;50.090;14.420;2024-03-02T03:45:22;98457.84;;;11.90;69.62
67740;BME280;54536;50.090;14.420;2024-03-02T03:47:48;98456.34;;;12.04;69.21
67740;BME280;54536;50.090;14.420;2024-03-02T03:50:18;98454.69;;;12.11;68.82
67740;BME280;54536;50.090;14.420;2024-03-02T03:52:45;98453.72;;;11.95;69.59
67740;BME280;54536;50.090;14.420;2024-03-02T03:55:14;98460.78;;;12.03;69.19
67740;BME280;54536;50.090;14.420;2024-03-02T03:57:40;98461.44;;;12.05;68.64
67740;BME280;54536;50.090;14.420;2024-03-02T04:00:07;98457.31;;;12.03;68.07
67740;BME280;54536;50.090;14.420;2024-03-02T04:02:36;98457.13;;;12.12;67.99
67740;BME280;54536;50.090;14.420;2024-03-02T04:05:02;98455.88;;;12.00;68.29
67740;BME280;54536;50.090;14.420;2024-03-02T04:07:30;98469.00;;;12.16;67.92
67740;BME280;54536;50.090;14.420;2024-03-02T04:09:56;98469.34;;;12.13;67.97
67740;BME280;54536;50.090;14.420;2024-03-02T04:12:22;98472.81;;;12.06;67.93
67740;BME280;54536;50.090;14.420;2024-03-02T04:14:48;98480.06;;;12.04;68.43
67740;BME280;54536;50.090;14.420;2024-03-02T04:17:14;98474.81;;;12.04;68.72
67740;BME280;54536;50.090;14.420;2024-03-02T04:19:40;98474.44;;;12.15;68.24
67740;BME280;54536;50.090;14.420;2024-03-02T04:22:06;98485.63;;;12.17;67.49
67740;BME280;54536;50.090;14.420;2024-03-02T04:24:32;98482.84;;;12.10;68.35
67740;BME280;54536;50.090;14.420;2024-03-02T04:26:58;98481.03;;;12.03;68.02
67740;BME280;54536;50.090;14.420;2024-03-02T04:29:24;98484.84;;;11.92;68.06
67740;BME280;54536;50.090;14.420;2024-03-02T04:31:50;98490.63;;;11.95;67.79
67740;BME280;54536;50.090;14.420;2024-03-02T04:34:16;98486.31;;;12.11;67.38
67740;BME280;54536;50.090;14.420;2024-03-02T04:36:42;98497.03;;;11.93;66.84
67740;BME280;54536;50.090;14.420;2024-03-02T04:39:08;98499.19;;;11.89;66.76
67740;BME280;54536;50.090;14.420;2024-03-02T04:41:35;98495.88;;;11.95;66.75
67740;BME280;54536;50.090;14.420;2024-03-02T04:44:01;98505.06;;;11.83;66.83
67740;BME280;54536;50.090;14.420;2024-03-02T04:46:27;98502.94;;;11.79;66.66
67740;BME280;54536;50.090;14.420;2024-03-02T04:48:54;98501.19;;;11.87;65.89
67740;BME280;54536;50.090;14.420;2024-03-02T04:51:23;98509.56;;;11.75;66.30
67740;BME280;54536;50.090;14.420;2024-03-02T04:53:49;98505.78;;;11.85;65.58
67740;BME280;54536;50.090;14.420;2024-03-02T04:56:15;98509.56;;;11.75;66.29
67740;BME280;54536;50.090;14.420;2024-03-02T04:58:56;98522.22;;;11.79;66.23
67740;BME280;54536;50.090;14.420;2024-03-02T05:01:23;98528.66;;;11.85;65.78
67740;BME280;54536;50.090;14.420;2024-03-02T05:03:49;98526.00;;;11.77;65.29
67740;BME280;54536;50.090;14.420;2024-03-02T05:06:15;98524.69;;;11.81;65.24
67740;BME280;54536;50.090;14.420;2024-03-02T05:08:41;98522.91;;;11.98;64.80
67740;BME280;54536;50.090;14.420;2024-03-02T05:11:07;98527.47;;;11.79;65.53
67740;BME280;54536;50.090;14.420;2024-03-02T05:13:51;98527.97;;;11.83;64.67
67740;BME280;54536;50.090;14.420;2024-03-02T05:16:17;98525.81;;;11.70;65.11
67740;BME280;54536;50.090;14.420;2024-03-02T05:18:43;98525.34;;;11.75;65.43
67740;BME280;54536;50.090;14.420;2024-03-02T05:21:09;98526.00;;;11.93;64.17
67740;BME280;54536;50.090;14.420;2024-03-02T05:23:35;98519.09;;;11.84;64.50
67740;BME280;54536;50.090;14.420;2024-03-02T05:26:01;98527.97;;;11.83;64.85
67740;BME280;54536;50.090;14.420;2024-03-02T05:28:28;98537.19;;;11.79;64.61
67740;BME280;54536;50.090;14.420;2024-03-02T05:30:54;98541.97;;;11.83;64.40
67740;BME280;54536;50.090;14.420;2024-03-02T05:33:20;98542.28;;;11.80;64.46
67740;BME280;54536;50.090;14.420;2024-03-02T05:35:48;98551.88;;;11.89;64.26
67740;BME280;54536;50.090;14.420;2024-03-02T05:38:15;98563.03;;;11.83;64.32
67740;BME280;54536;50.090;14.420;2024-03-02T05:40:41;98558.75;;;11.66;64.90
67740;BME280;54536;50.090;14.420;2024-03-02T05:43:07;98562.56;;;11.71;64.34
67740;BME280;54536;50.090;14.420;2024-03-02T05:45:34;98568.63;;;11.80;64.30
67740;BME280;54536;50.090;14.420;2024-03-02T05:48:00;98571.63;;;11.77;64.29
67740;BME280;54536;50.090;14.420;2024-03-02T05:50:26;98572.59;;;11.68;64.31
67740;BME280;54536;50.090;14.420;2024-03-02T05:52:52;98571.78;;;11.67;64.57
67740;BME280;54536;50.090;14.420;2024-03-02T05:55:18;98568.78;;;11.70;64.25
67740;BME280;54536;50.090;14.420;2024-03-02T05:57:44;98576.03;;;11.77;63.54
67740;BME280;54536;50.090;14.420;2024-03-02T06:00:11;98576.09;;;11.85;64.14
67740;BME280;54536;50.090;14.420;2024-03-02T06:02:40;98581.16;;;11.86;63.51
67740;BME280;54536;50.090;14.420;2024-03-02T06:05:09;98581.03;;;11.88;63.30
67740;BME280;54536;50.090;14.420;2024-03-02T06:07:35;98585.75;;;11.76;64.06
67740;BME280;54536;50.090;14.420;2024-03-02T06:10:01;98587.59;;;11.84;63.36
67740;BME280;54536;50.090;14.420;2024-03-02T06:12:27;98587.78;;;11.90;62.89
67740;BME280;54536;50.090;14.420;2024-03-02T06:14:53;98591.53;;;11.96;63.05
67740;BME280;54536;50.090;14.420;2024-03-02T06:17:19;98592.53;;;11.95;63.12
67740;BME280;54536;50.090;14.420;2024-03-02T06:19:45;98589.06;;;11.78;63.33
67740;BME280;54536;50.090;14.420;2024-03-02T06:22:12;98586.41;;;11.78;62.60
67740;BME280;54536;50.090;14.420;2024-03-02T06:24:38;98588.75;;;11.89;62.30
67740;BME280;54536;50.090;14.420;2024-03-02T06:27:05;98595.97;;;11.79;61.95
67740;BME280;54536;50.090;14.420;2024-03-02T06:29:34;98590.19;;;11.76;62.14
67740;BME280;54536;50.090;14.420;2024-03-02T06:32:00;98598.78;;;11.86;61.50
67740;BME280;54536;50.090;14.420;2024-03-02T06:34:26;98591.88;;;11.85;61.71
67740;BME280;54536;50.090;14.420;2024-03-02T06:36:52;98597.31;;;11.91;61.88
67740;BME280;54536;50.090;14.420;2024-03-02T06:39:19;98604.22;;;11.92;62.04
67740;BME280;54536;50.090;14.420;2024-03-02T06:41:45;98596.00;;;11.87;62.05
67740;BME280;54536;50.090;14.420;2024-03-02T06:44:13;98595.69;;;11.90;61.67
67740;BME280;54536;50.090;14.420;2024-03-02T06:46:39;98597.13;;;11.93;61.79
67740;BME280;54536;50.090;14.420;2024-03-02T06:49:05;98596.31;;;11.92;61.99
67740;BME280;54536;50.090;14.420;2024-03-02T06:51:31;98605.72;;;11.95;62.00
67740;BME280;54536;50.090;14.420;2024-03-02T06:53:57;98612.47;;;11.89;62.25
67740;BME280;54536;50.090;14.420;2024-03-02T06:56:23;98619.72;;;11.87;62.11
67740;BME280;54536;50.090;14.420;2024-03-02T06:58:49;98617.75;;;11.98;61.92
67740;BME280;54536;50.090;14.420;2024-03-02T07:01:15;98617.88;;;11.96;62.31
67740;BME280;54536;50.090;14.420;2024-03-02T07:03:41;98620.53;;;11.96;62.03
67740;BME280;54536;50.090;14.420;2024-03-02T07:06:08;98621.19;;;11.98;62.13
67740;BME280;54536;50.090;14.420;2024-03-02T07:08:34;98622.38;;;12.04;62.79
67740;BME280;54536;50.090;14.420;2024-03-02T07:11:00;98626.13;;;12.01;63.02
67740;BME280;54536;50.090;14.420;2024-03-02T07:13:26;98628.59;;;11.86;62.94
67740;BME280;54536;50.090;14.420;2024-03-02T07:15:52;98628.75;;;11.93;63.02
67740;BME280;54536;50.090;14.420;2024-03-02T07:18:37;98638.66;;;11.99;62.89
67740;BME280;54536;50.090;14.420;2024-03-02T07:21:10;98638.31;;;12.02;62.46
67740;BME280;54536;50.090;14.420;2024-03-02T07:23:36;98650.69;;;11.93;62.73
67740;BME280;54536;50.090;14.420;2024-03-02T07:26:02;98647.72;;;12.05;62.62
67740;BME280;54536;50.090;14.420;2024-03-02T07:28:29;98651.50;;;11.94;62.32
67740;BME280;54536;50.090;14.420;2024-03-02T07:31:03;98649.38;;;11.98;62.45
67740;BME280;54536;50.090;14.420;2024-03-02T07:33:30;98658.25;;;12.13;61.91
67740;BME280;54536;50.090;14.420;2024-03-02T07:35:57;98658.25;;;12.05;61.80
67740;BME280;54536;50.090;14.420;2024-03-02T07:38:26;98657.75;;;12.01;62.09
67740;BME280;54536;50.090;14.420;2024-03-02T07:40:53;98661.88;;;12.12;62.33
67740;BME280;54536;50.090;14.420;2024-03-02T07:43:20;98660.53;;;12.00;62.35
67740;BME280;54536;50.090;14.420;2024-03-02T07:45:46;98664.69;;;11.94;62.59
67740;BME280;54536;50.090;14.420;2024-03-02T07:48:14;98654.97;;;11.94;62.22
67740;BME280;54536;50.090;14.420;2024-03-02T07:50:40;98653.63;;;11.99;62.42
67740;BME280;54536;50.090;14.420;2024-03-02T07:53:07;98650.31;;;11.97;62.91
67740;BME280;54536;50.090;14.420;2024-03-02T07:55:36;98652.97;;;11.97;62.70
67740;BME280;54536;50.090;14.420;2024-03-02T07:58:02;98649.84;;;12.01;62.35
67740;BME280;54536;50.090;14.420;2024-03-02T08:00:28;98648.38;;;12.15;61.99
67740;BME280;54536;50.090;14.420;2024-03-02T08:02:55;98642.59;;;12.28;61.84
67740;BME280;54536;50.090;14.420;2024-03-02T08:05:22;98638.66;;;12.24;61.67
67740;BME280;54536;50.090;14.420;2024-03-02T08:07:48;98651.50;;;12.27;61.67
67740;BME280;54536;50.090;14.420;2024-03-02T08:10:18;98648.03;;;12.18;60.97
67740;BME280;54536;50.090;14.420;2024-03-02T08:12:45;98647.38;;;12.08;61.01
67740;BME280;54536;50.090;14.420;2024-03-02T08:15:11;98643.13;;;12.07;61.37
67740;BME280;54536;50.090;14.420;2024-03-02T08:17:40;98656.28;;;12.23;61.14
67740;BME280;54536;50.090;14.420;2024-03-02T08:20:14;98652.00;;;12.30;60.81
67740;BME280;54536;50.090;14.420;2024-03-02T08:22:40;98657.75;;;12.42;60.50
67740;BME280;54536;50.090;14.420;2024-03-02T08:25:07;98658.75;;;12.49;60.35
67740;BME280;54536;50.090;14.420;2024-03-02T08:27:34;98662.19;;;12.41;60.34
67740;BME280;54536;50.090;14.420;2024-03-02T08:30:00;98656.28;;;12.56;59.87
67740;BME280;54536;50.090;14.420;2024-03-02T08:32:26;98659.88;;;12.55;59.93
67740;BME280;54536;50.090;14.420;2024-03-02T08:34:52;98657.88;;;12.65;58.90
67740;BME280;54536;50.090;14.420;2024-03-02T08:37:19;98657.09;;;12.56;58.61
67740;BME280;54536;50.090;14.420;2024-03-02T08:39:45;98660.50;;;12.73;57.98
67740;BME280;54536;50.090;14.420;2024-03-02T08:42:11;98666.13;;;12.70;58.14
67740;BME280;54536;50.090;14.420;2024-03-02T08:44:38;98665.94;;;12.80;58.10
67740;BME280;54536;50.090;14.420;2024-03-02T08:47:04;98661.47;;;12.80;58.14
67740;BME280;54536;50.090;14.420;2024-03-02T08:49:30;98661.47;;;12.88;58.03
67740;BME280;54536;50.090;14.420;2024-03-02T08:51:56;98664.47;;;12.85;57.47
67740;BME280;54536;50.090;14.420;2024-03-02T08:54:22;98670.69;;;12.93;57.49
67740;BME280;54536;50.090;14.420;2024-03-02T08:56:49;98666.75;;;12.88;57.17
67740;BME280;54536;50.090;14.420;2024-03-02T08:59:16;98666.53;;;13.06;57.16
67740;BME280;54536;50.090;14.420;2024-03-02T09:01:43;98672.75;;;13.13;56.81
67740;BME280;54536;50.090;14.420;2024-03-02T09:04:09;98674.13;;;13.01;57.14
67740;BME280;54536;50.090;14.420;2024-03-02T09:06:35;98667.06;;;12.94;57.16
67740;BME280;54536;50.090;14.420;2024-03-02T09:09:01;98661.47;;;12.88;57.54
67740;BME280;54536;50.090;14.420;2024-03-02T09:11:27;98661.97;;;12.84;57.33
67740;BME280;54536;50.090;14.420;2024-03-02T09:13:53;98660.81;;;12.86;57.40
67740;BME280;54536;50.090;14.420;2024-03-02T09:16:20;98659.94;;;13.02;57.23
67740;BME280;54536;50.090;14.420;2024-03-02T09:18:46;98657.59;;;13.16;56.34
67740;BME280;54536;50.090;14.420;2024-03-02T09:21:13;98663.22;;;13.12;56.65
67740;BME280;54536;50.090;14.420;2024-03-02T09:23:39;98656.09;;;13.13;56.67
67740;BME280;54536;50.090;14.420;2024-03-02T09:26:06;98664.84;;;13.22;55.68
67740;BME280;54536;50.090;14.420;2024-03-02T09:28:31;98667.34;;;13.15;55.77
67740;BME280;54536;50.090;14.420;2024-03-02T09:30:58;98667.63;;;13.28;55.06
67740;BME280;54536;50.090;14.420;2024-03-02T09:33:23;98663.53;;;13.26;55.68
67740;BME280;54536;50.090;14.420;2024-03-02T09:35:49;98667.91;;;13.42;55.31
67740;BME280;54536;50.090;14.420;2024-03-02T09:38:15;98657.81;;;13.45;55.13
67740;BME280;54536;50.090;14.420;2024-03-02T09:40:42;98656.41;;;13.34;55.01
67740;BME280;54536;50.090;14.420;2024-03-02T09:43:09;98663.78;;;13.39;55.10
67740;BME280;54536;50.090;14.420;2024-03-02T09:45:36;98659.31;;;13.48;55.39
67740;BME280;54536;50.090;14.420;2024-03-02T09:48:02;98660.63;;;13.44;55.40
67740;BME280;54536;50.090;14.420;2024-03-02T09:50:28;98655.66;;;13.49;55.17
67740;BME280;54536;50.090;14.420;2024-03-02T09:52:54;98659.03;;;13.66;55.38
67740;BME280;54536;50.090;14.420;2024-03-02T09:55:21;98656.09;;;13.61;54.89
67740;BME280;54536;50.090;14.420;2024-03-02T09:57:46;98656.16;;;13.75;54.97
67740;BME280;54536;50.090;14.420;2024-03-02T10:00:15;98650.00;;;13.83;54.65
67740;BME280;54536;50.090;14.420;2024-03-02T10:02:41;98650.72;;;13.77;55.26
67740;BME280;54536;50.090;14.420;2024-03-02T10:05:09;98651.19;;;13.80;54.13
67740;BME280;54536;50.090;14.420;2024-03-02T10:07:35;98645.38;;;14.08;55.33
67740;BME280;54536;50.090;14.420;2024-03-02T10:10:15;98652.41;;;14.16;54.58
67740;BME280;54536;50.090;14.420;2024-03-02T10:12:41;98660.63;;;14.21;54.56
67740;BME280;54536;50.090;14.420;2024-03-02T10:15:08;98664.63;;;14.17;54.45
67740;BME280;54536;50.090;14.420;2024-03-02T10:17:35;98657.34;;;14.19;53.68
67740;BME280;54536;50.090;14.420;2024-03-02T10:20:25;98661.56;;;14.05;53.98
67740;BME280;54536;50.090;14.420;2024-03-02T10:22:52;98662.13;;;14.00;54.13
67740;BME280;54536;50.090;14.420;2024-03-02T10:25:30;98668.34;;;13.85;54.42
67740;BME280;54536;50.090;14.420;2024-03-02T10:28:01;98665.75;;;13.99;55.00
67740;BME280;54536;50.090;14.420;2024-03-02T10:30:28;98667.97;;;13.88;54.82
67740;BME280;54536;50.090;14.420;2024-03-02T10:32:55;98661.53;;;13.90;54.31
67740;BME280;54536;50.090;14.420;2024-03-02T10:35:24;98658.66;;;13.77;54.79
67740;BME280;54536;50.090;14.420;2024-03-02T10:37:55;98653.13;;;13.87;54.37
67740;BME280;54536;50.090;14.420;2024-03-02T10:40:22;98652.25;;;13.94;54.30
67740;BME280;54536;50.090;14.420;2024-03-02T10:42:50;98650.72;;;14.00;53.94
67740;BME280;54536;50.090;14.420;2024-03-02T10:45:20;98646.72;;;14.04;53.57
67740;BME280;54536;50.090;14.420;2024-03-02T10:47:50;98639.44;;;14.06;53.36
67740;BME280;54536;50.090;14.420;2024-03-02T10:50:17;98639.81;;;14.03;53.63
67740;BME280;54536;50.090;14.420;2024-03-02T10:52:43;98634.78;;;14.08;53.58
67740;BME280;54536;50.090;14.420;2024-03-02T10:55:10;98634.19;;;14.21;54.90
67740;BME280;54536;50.090;14.420;2024-03-02T10:57:52;98629.84;;;14.05;53.84
67740;BME280;54536;50.090;14.420;2024-03-02T11:00:25;98625.94;;;14.01;54.12
67740;BME280;54536;50.090;14.420;2024-03-02T11:02:58;98626.50;;;14.11;53.88
67740;BME280;54536;50.090;14.420;2024-03-02T11:05:31;98632.22;;;14.00;53.78
67740;BME280;54536;50.090;14.420;2024-03-02T11:08:07;98620.34;;;13.96;53.56
67740;BME280;54536;50.090;14.420;2024-03-02T11:10:50;98621.06;;;14.13;53.83
67740;BME280;54536;50.090;14.420;2024-03-02T11:13:24;98624.75;;;14.03;53.77
67740;BME280;54536;50.090;14.420;2024-03-02T11:15:56;98627.16;;;14.13;53.79
67740;BME280;54536;50.090;14.420;2024-03-02T11:18:26;98621.97;;;14.20;53.58
67740;BME280;54536;50.090;14.420;2024-03-02T11:20:54;98622.09;;;14.26;53.07
67740;BME280;54536;50.090;14.420;2024-03-02T11:23:32;98618.72;;;14.70;52.13
67740;BME280;54536;50.090;14.420;2024-03-02T11:26:21;98605.75;;;14.75;51.74
67740;BME280;54536;50.090;14.420;2024-03-02T11:28:48;98597.59;;;15.21;50.67
67740;BME280;54536;50.090;14.420;2024-03-02T11:31:15;98600.03;;;15.38;49.82
67740;BME280;54536;50.090;14.420;2024-03-02T11:33:41;98595.47;;;15.68;49.00
67740;BME280;54536;50.090;14.420;2024-03-02T11:36:08;98598.16;;;16.18;47.38
67740;BME280;54536;50.090;14.420;2024-03-02T11:38:35;98591.63;;;15.92;48.06
67740;BME280;54536;50.090;14.420;2024-03-02T11:41:06;98590.69;;;15.78;47.97
67740;BME280;54536;50.090;14.420;2024-03-02T11:43:38;98587.84;;;15.80;48.05
67740;BME280;54536;50.090;14.420;2024-03-02T11:46:06;98591.06;;;15.75;48.17
67740;BME280;54536;50.090;14.420;2024-03-02T11:48:36;98584.47;;;16.14;47.34
67740;BME280;54536;50.090;14.420;2024-03-02T11:51:04;98572.84;;;16.15;47.38
67740;BME280;54536;50.090;14.420;2024-03-02T11:53:30;98576.81;;;16.26;47.09
67740;BME280;54536;50.090;14.420;2024-03-02T11:56:01;98578.78;;;15.96;47.72
67740;BME280;54536;50.090;14.420;2024-03-02T11:58:27;98585.00;;;15.81;47.67
67740;BME280;54536;50.090;14.420;2024-03-02T12:00:54;98590.69;;;15.78;47.64
67740;BME280;54536;50.090;14.420;2024-03-02T12:03:23;98591.13;;;15.82;47.84
67740;BME280;54536;50.090;14.420;2024-03-02T12:05:53;98597.88;;;15.84;48.08
67740;BME280;54536;50.090;14.420;2024-03-02T12:08:19;98592.72;;;15.76;48.52
67740;BME280;54536;50.090;14.420;2024-03-02T12:11:00;98587.53;;;15.32;48.51
67740;BME280;54536;50.090;14.420;2024-03-02T12:13:26;98584.06;;;15.31;48.64
67740;BME280;54536;50.090;14.420;2024-03-02T12:15:54;98585.31;;;15.35;48.67
67740;BME280;54536;50.090;14.420;2024-03-02T12:18:24;98584.75;;;15.40;48.79
67740;BME280;54536;50.090;14.420;2024-03-02T12:20:52;98583.25;;;15.31;49.02
67740;BME280;54536;50.090;14.420;2024-03-02T12:23:18;98582.97;;;15.26;49.45
67740;BME280;54536;50.090;14.420;2024-03-02T12:25:46;98581.88;;;15.20;49.40
67740;BME280;54536;50.090;14.420;2024-03-02T12:28:12;98585.25;;;15.14;49.72
67740;BME280;54536;50.090;14.420;2024-03-02T12:30:39;98579.97;;;15.14;49.67
67740;BME280;54536;50.090;14.420;2024-03-02T12:33:05;98586.03;;;15.08;49.38
67740;BME280;54536;50.090;14.420;2024-03-02T12:35:31;98590.31;;;15.09;49.64
67740;BME280;54536;50.090;14.420;2024-03-02T12:37:57;98593.41;;;14.97;49.38
67740;BME280;54536;50.090;14.420;2024-03-02T12:40:24;98584.72;;;15.18;49.01
67740;BME280;54536;50.090;14.420;2024-03-02T12:42:50;98581.53;;;15.08;48.98
67740;BME280;54536;50.090;14.420;2024-03-02T12:45:17;98580.91;;;15.06;49.10
67740;BME280;54536;50.090;14.420;2024-03-02T12:47:49;98584.28;;;15.00;49.66
67740;BME280;54536;50.090;14.420;2024-03-02T12:50:18;98582.66;;;14.99;49.67
67740;BME280;54536;50.090;14.420;2024-03-02T12:52:51;98570.75;;;15.10;49.59
67740;BME280;54536;50.090;14.420;2024-03-02T12:55:20;98571.03;;;15.15;49.80